Emre Tufan

Scout - Fenerbahce
25 Nov 2027
Donnerstag
Verarbeitung

Persönlichkeit

Anpassungsfähigkeit (9) Ehrgeiz (2) Kontroverse (4) Loyalität (8) Druck (2) Professionalität (2) Fairness (5) Temperament (14)

Profil

Trainerstil Demokratisch
Lizenz Kontinentale C
Entschlossenheit 6
Menschenführung 16
Motivation 11
Disziplin 12
Arbeitszufriedenheit
100%
Ermüdung
0%
Rolle Scout
Gehalt 34.7K p/W
Vertrag 14.03.2030

Leistung

Verhalten Gut
Trainingseffektivität
45%
Spielerentwicklung
30%
Verletzungsprävention
65%
Taktische Umsetzung
50%

Letzte Ereignisse

Nahm an einer Scouting-Besprechung teil 7T her
Nahm an einer Scouting-Besprechung teil 14T her
Nahm an einer Scouting-Besprechung teil 21T her
Nahm an einer Scouting-Besprechung teil 28T her
Nahm an einer Scouting-Besprechung teil 35T her
Nahm an einer Scouting-Besprechung teil 42T her
Nahm an einer Scouting-Besprechung teil 49T her
Nahm an einer Scouting-Besprechung teil 56T her

Aktuell beobachtet

68
Spieler Verein Status Fähigkeit Vertrauen Beobachtet Zuletzt beobachtet Letzte Stimme
Alessandro Buongiorno Sassuolo Aktiv 156 / 161 40% 5 17.08.2027 -
Carlos Augusto Inter Aktiv 145 / 155 40% 1 17.08.2027 -
Bilal Bayazıt Kayserispor Verloren 130 / 131 69% 1 16.08.2027 -
Manu Koné AS Roma Aktiv 163 / 158 40% 3 31.05.2027 -
Nico O'Reilly Manchester City Aktiv 156 / 163 40% 1 31.05.2027 -
Antonee Robinson Fulham Aktiv 152 / 147 40% 1 31.05.2027 -
Curtis Jones Inter Aktiv 164 / 154 40% 8 30.05.2027 -
Rico Lewis Manchester City Aktiv 155 / 151 40% 5 30.05.2027 -
Boubacar Kamara Aston Villa Aktiv 175 / 170 40% 1 30.05.2027 -
Jake O'Brien Everton Aktiv 141 / 151 40% 4 29.05.2027 -
Yehor Yarmoliuk Brentford Aktiv 140 / 144 40% 5 29.05.2027 -
Nathan Collins Brentford Aktiv 136 / 145 40% 8 28.05.2027 -
Noah Sadiki Sunderland Aktiv 143 / 149 40% 4 28.05.2027 -
James Garner Everton Aktiv 156 / 147 40% 7 27.05.2027 -
Ousmane Diomande Nottingham Forest Aktiv 164 / 162 40% 3 27.05.2027 -
Welington Southampton Aktiv 125 / 131 40% 2 27.05.2027 -
Matthijs de Ligt Manchester United Aktiv 152 / 157 40% 7 26.05.2027 -
Bobby Thomas Coventry City Aktiv 129 / 129 40% 1 25.05.2027 -
Quinten Timber Crystal Palace Aktiv 146 / 146 40% 4 24.05.2027 -
Tariq Lamptey Queens Park Rangers Aktiv 144 / 134 40% 1 24.05.2027 -
Matt O'Riley Brighton Aktiv 158 / 148 40% 1 24.05.2027 -
Romano Schmid Frosinone Aktiv 142 / 135 40% 1 24.05.2027 -
Jacob Greaves Ipswich Town Aktiv 146 / 142 40% 1 23.05.2027 -
Florentino Luís Ipswich Town Aktiv 149 / 135 40% 5 22.05.2027 -
Lewis Ferguson Bologna Aktiv 138 / 141 40% 5 21.05.2027 -
Leif Davis Ipswich Town Aktiv 146 / 130 40% 2 21.05.2027 -
Habib Diarra Sunderland Aktiv 135 / 137 40% 2 21.05.2027 -
Aaron Hickey Brentford Aktiv 135 / 141 40% 2 18.05.2027 -
Murillo Nottingham Forest Aktiv 163 / 157 40% 1 18.05.2027 -
Luís Henrique Inter Aktiv 133 / 146 40% 2 15.05.2027 -
Adam Wharton Crystal Palace Aktiv 153 / 163 40% 4 15.05.2027 -
Juanlu Bournemouth Aktiv 141 / 150 40% 3 10.05.2027 -
Dango Ouattara Brentford Aktiv 141 / 137 40% 2 09.05.2027 -
Borja Sainz Fiorentina Aktiv 160 / 137 40% 1 09.05.2027 -
Shea Charles Southampton Aktiv 127 / 139 40% 4 08.05.2027 -
Adrien Truffert Bournemouth Aktiv 161 / 156 40% 2 06.05.2027 -
Nicolò Rovella Lazio Aktiv 149 / 150 40% 2 06.05.2027 -
Mats Wieffer Brighton Aktiv 144 / 149 40% 5 05.05.2027 -
Malo Gusto Chelsea Aktiv 156 / 151 40% 2 01.05.2027 -
Nuno Tavares Lazio Aktiv 148 / 154 40% 2 30.04.2027 -
Wesley Fofana Chelsea Aktiv 166 / 168 40% 1 27.04.2027 -
Pedro Porro Tottenham Aktiv 155 / 144 40% 1 24.04.2027 -
Tino Livramento Newcastle United Aktiv 159 / 154 40% 1 20.04.2027 -
Ethan Galbraith Swansea City Aktiv 123 / 128 40% 3 19.04.2027 -
Soungoutou Magassa West Ham United Aktiv 140 / 146 40% 1 19.04.2027 -
Ryan Sessegnon Fulham Aktiv 155 / 144 40% 2 18.04.2027 -
Óscar Mingueza Crystal Palace Aktiv 149 / 143 40% 6 17.04.2027 -
Carlos Vicente Birmingham Aktiv 156 / 145 40% 1 15.04.2027 -
Jarrad Branthwaite Everton Aktiv 152 / 162 40% 1 10.04.2027 -
Giacomo Raspadori Atalanta Aktiv 148 / 151 40% 2 06.04.2027 -
Georginio Rutter Brighton Aktiv 156 / 154 40% 3 30.12.2026 -
Themba Ngcobo SuperSport United Aktiv 119 / 109 40% 3 30.12.2026 -
Callum Hudson-Odoi Nottingham Forest Aktiv 150 / 157 40% 3 28.12.2026 -
Razvan Balasa Crvena Zvezda Aktiv 152 / 143 40% 2 26.12.2026 -
Tom Cannon Sheffield United Aktiv 131 / 132 40% 2 24.12.2026 -
Thiago Brentford Aktiv 157 / 148 40% 1 23.12.2026 -
Etiosa Ighodaro Kaizer Chiefs Aktiv 107 / 108 40% 1 22.12.2026 -
Nico González Newcastle United Aktiv 156 / 167 40% 2 21.12.2026 -
Yeremy Pino Crystal Palace Aktiv 147 / 157 40% 1 21.12.2026 -
Mason Mount Manchester United Aktiv 166 / 144 40% 1 19.12.2026 -
Kevin Fulham Aktiv 150 / 154 40% 1 19.12.2026 -
Noni Madueke Arsenal Aktiv 152 / 149 40% 1 17.12.2026 -
Gonzalo Fulham Aktiv 149 / 143 40% 1 14.12.2026 -
Yousef Salech Cardiff City Aktiv 119 / 125 40% 1 10.12.2026 -
Mandla Mahlangu Ajax Cape Town Aktiv 111 / 103 40% 1 10.12.2026 -
Hector Ramirez Newcastle United Aktiv 160 / 146 40% 1 08.12.2026 -
Junnosuke Suzuki FC Copenhagen Aktiv 126 / 141 40% 1 10.08.2026 -
Samú Al-Nassr Aktiv 135 / 156 40% 1 03.08.2026 -